Time;durP1;ratioP1;P1;durP2;ratioP2;P2;SDS_P1;SDS_P2;PMS_P1;PMS_P2;Temp;Humidity;BMP_temperature;BMP_pressure;BME280_temperature;BME280_humidity;BME280_pressure;Samples;Min_cycle;Max_cycle;Signal;HPM_P1;HPM_P2
2022/06/08 00:01:48;;;;;;;0.93;0.60;;;;;;;;;;5138028;28;20336;-59
2022/06/08 00:04:17;;;;;;;0.63;0.50;;;;;;;;;;5153887;27;20288;-59
2022/06/08 00:06:45;;;;;;;0.80;0.65;;;;;;;;;;5158963;27;20201;-59
2022/06/08 00:09:12;;;;;;;0.57;0.55;;;;;;;;;;5160072;27;20324;-59
2022/06/08 00:11:40;;;;;;;0.57;0.57;;;;;;;;;;5163550;27;20201;-59
2022/06/08 00:14:07;;;;;;;1.42;0.68;;;;;;;;;;5163802;27;20538;-59
2022/06/08 00:16:34;;;;;;;0.75;0.60;;;;;;;;;;5163056;27;20280;-59
2022/06/08 00:19:03;;;;;;;0.50;0.50;;;;;;;;;;5149874;27;20254;-59
2022/06/08 00:21:31;;;;;;;0.60;0.60;;;;;;;;;;5141882;27;20258;-59
2022/06/08 00:23:58;;;;;;;0.52;0.52;;;;;;;;;;5140981;27;20293;-59
2022/06/08 00:26:26;;;;;;;0.60;0.50;;;;;;;;;;5141234;27;20289;-59
2022/06/08 00:28:53;;;;;;;0.60;0.60;;;;;;;;;;5141419;27;20324;-59
2022/06/08 00:31:21;;;;;;;0.88;0.60;;;;;;;;;;5141138;27;20297;-59
2022/06/08 00:33:49;;;;;;;0.55;0.50;;;;;;;;;;5142103;27;20319;-59
2022/06/08 00:36:18;;;;;;;0.60;0.60;;;;;;;;;;5140447;27;20210;-59
2022/06/08 00:38:45;;;;;;;0.60;0.60;;;;;;;;;;5141140;27;20292;-59
2022/06/08 00:41:20;;;;;;;0.50;0.50;;;;;;;;;;5140800;27;20304;-59
2022/06/08 00:43:47;;;;;;;0.70;0.50;;;;;;;;;;5141774;27;20296;-59
2022/06/08 00:46:15;;;;;;;0.60;0.60;;;;;;;;;;5140586;27;20187;-59
2022/06/08 00:48:45;;;;;;;1.08;0.70;;;;;;;;;;5141701;27;20222;-59
2022/06/08 00:51:13;;;;;;;0.68;0.65;;;;;;;;;;5141464;27;20198;-59
2022/06/08 00:53:43;;;;;;;0.60;0.60;;;;;;;;;;5141845;27;20597;-58
2022/06/08 00:56:14;;;;;;;0.63;0.63;;;;;;;;;;5140658;27;20259;-59
2022/06/08 00:58:41;;;;;;;0.70;0.50;;;;;;;;;;5142050;27;20205;-59
2022/06/08 01:01:09;;;;;;;0.55;0.55;;;;;;;;;;5140815;27;20198;-59
2022/06/08 01:03:36;;;;;;;0.60;0.60;;;;;;;;;;5140011;27;20204;-59
2022/06/08 01:06:05;;;;;;;0.68;0.50;;;;;;;;;;5140548;27;20194;-59
2022/06/08 01:08:36;;;;;;;0.57;0.57;;;;;;;;;;5141351;27;20202;-59
2022/06/08 01:11:08;;;;;;;0.70;0.70;;;;;;;;;;5141053;27;20199;-59
2022/06/08 01:13:36;;;;;;;0.68;0.60;;;;;;;;;;5140950;27;20209;-59
2022/06/08 01:16:04;;;;;;;0.57;0.50;;;;;;;;;;5140964;27;20199;-59
2022/06/08 01:18:32;;;;;;;0.68;0.60;;;;;;;;;;5141380;27;20253;-58
2022/06/08 01:21:14;;;;;;;0.50;0.50;;;;;;;;;;5140386;27;20199;-59
2022/06/08 01:23:42;;;;;;;1.58;0.60;;;;;;;;;;5139372;27;20605;-58
2022/06/08 01:26:13;;;;;;;0.50;0.50;;;;;;;;;;5140604;27;20206;-59
2022/06/08 01:28:44;;;;;;;0.60;0.60;;;;;;;;;;5139954;27;20589;-60
2022/06/08 01:31:16;;;;;;;0.60;0.60;;;;;;;;;;5140651;27;20203;-59
2022/06/08 01:33:51;;;;;;;0.50;0.50;;;;;;;;;;5140313;27;20198;-59
2022/06/08 01:36:26;;;;;;;0.70;0.70;;;;;;;;;;5124922;27;20550;-58
2022/06/08 01:38:58;;;;;;;0.60;0.60;;;;;;;;;;5141218;27;20205;-58
2022/06/08 01:41:34;;;;;;;1.15;0.50;;;;;;;;;;5139840;27;20230;-59
2022/06/08 01:44:11;;;;;;;0.70;0.70;;;;;;;;;;5139830;27;20229;-59
2022/06/08 01:46:41;;;;;;;0.50;0.50;;;;;;;;;;5139895;27;20197;-59
2022/06/08 01:49:15;;;;;;;0.40;0.40;;;;;;;;;;5140970;27;20594;-59
2022/06/08 01:51:49;;;;;;;0.60;0.60;;;;;;;;;;5139420;27;20190;-59
2022/06/08 01:54:22;;;;;;;0.65;0.60;;;;;;;;;;5140021;27;20255;-59
2022/06/08 01:56:53;;;;;;;0.70;0.70;;;;;;;;;;5139551;27;20199;-59
2022/06/08 01:59:29;;;;;;;0.50;0.50;;;;;;;;;;5139024;27;20599;-58
2022/06/08 02:01:59;;;;;;;0.70;0.70;;;;;;;;;;5140548;27;20507;-58
2022/06/08 02:04:30;;;;;;;1.50;0.63;;;;;;;;;;5140056;27;20481;-59
2022/06/08 02:07:01;;;;;;;0.63;0.50;;;;;;;;;;5139217;27;20205;-59
2022/06/08 02:09:35;;;;;;;1.10;0.52;;;;;;;;;;5139615;27;20244;-59
2022/06/08 02:12:05;;;;;;;0.63;0.63;;;;;;;;;;5136728;27;20202;-59
2022/06/08 02:14:35;;;;;;;0.60;0.60;;;;;;;;;;5139939;27;20202;-59
2022/06/08 02:17:06;;;;;;;0.60;0.60;;;;;;;;;;5139142;27;20194;-59
2022/06/08 02:19:35;;;;;;;0.60;0.60;;;;;;;;;;5139984;27;20592;-60
2022/06/08 02:22:06;;;;;;;0.85;0.70;;;;;;;;;;5139059;27;20608;-59
2022/06/08 02:24:36;;;;;;;0.55;0.55;;;;;;;;;;5139916;27;20202;-59
2022/06/08 02:27:06;;;;;;;0.68;0.60;;;;;;;;;;5140043;27;20202;-59
2022/06/08 02:29:37;;;;;;;0.60;0.60;;;;;;;;;;5137631;27;20233;-59
2022/06/08 02:34:27;;;;;;;0.50;0.50;;;;;;;;;;5139446;27;20195;-59
2022/06/08 02:34:56;;;;;;;0.70;0.70;;;;;;;;;;5137712;27;20198;-60
2022/06/08 02:37:25;;;;;;;0.75;0.57;;;;;;;;;;5139289;27;20501;-60
2022/06/08 02:39:57;;;;;;;0.68;0.50;;;;;;;;;;5140080;27;20191;-60
2022/06/08 02:42:26;;;;;;;0.50;0.50;;;;;;;;;;5139239;27;20238;-59
2022/06/08 02:44:56;;;;;;;1.13;0.63;;;;;;;;;;5138579;27;20454;-59
2022/06/08 02:47:29;;;;;;;0.47;0.47;;;;;;;;;;5136495;27;20207;-59
2022/06/08 02:49:57;;;;;;;0.60;0.60;;;;;;;;;;5134453;27;20243;-60
2022/06/08 02:52:25;;;;;;;0.70;0.70;;;;;;;;;;5139094;27;20198;-59
2022/06/08 02:54:53;;;;;;;0.50;0.50;;;;;;;;;;5139023;27;20221;-59
2022/06/08 02:57:26;;;;;;;0.65;0.60;;;;;;;;;;5138464;27;20604;-59
2022/06/08 02:59:58;;;;;;;0.63;0.63;;;;;;;;;;5138679;27;20194;-59
2022/06/08 03:02:29;;;;;;;0.50;0.50;;;;;;;;;;5118913;28;20356;-59
2022/06/08 03:04:59;;;;;;;0.63;0.60;;;;;;;;;;5133485;27;20198;-59
2022/06/08 03:07:29;;;;;;;0.73;0.73;;;;;;;;;;5138813;27;20578;-60
2022/06/08 03:09:57;;;;;;;0.70;0.60;;;;;;;;;;5137738;27;20248;-59
2022/06/08 03:12:28;;;;;;;0.63;0.63;;;;;;;;;;5139019;27;20586;-59
2022/06/08 03:14:56;;;;;;;0.60;0.60;;;;;;;;;;5135053;27;20206;-59
2022/06/08 03:17:26;;;;;;;0.60;0.60;;;;;;;;;;5118649;28;20203;-59
2022/06/08 03:19:53;;;;;;;0.60;0.60;;;;;;;;;;5118389;28;20195;-59
2022/06/08 03:22:21;;;;;;;0.95;0.60;;;;;;;;;;5118327;28;20210;-59
2022/06/08 03:24:48;;;;;;;0.60;0.60;;;;;;;;;;5118043;28;20214;-59
2022/06/08 03:27:16;;;;;;;1.23;0.60;;;;;;;;;;5123045;27;20617;-58
2022/06/08 03:29:45;;;;;;;0.50;0.50;;;;;;;;;;5138449;27;20230;-58
2022/06/08 03:32:12;;;;;;;0.82;0.60;;;;;;;;;;5138096;27;20202;-58
2022/06/08 03:34:40;;;;;;;0.93;0.63;;;;;;;;;;5138338;27;20213;-58
2022/06/08 03:37:09;;;;;;;0.75;0.75;;;;;;;;;;5138408;27;20504;-59
2022/06/08 03:39:36;;;;;;;0.73;0.60;;;;;;;;;;5137969;27;20206;-58
2022/06/08 03:42:04;;;;;;;1.20;0.68;;;;;;;;;;5138371;27;20257;-58
2022/06/08 03:44:31;;;;;;;0.70;0.70;;;;;;;;;;5137820;27;20301;-58
2022/06/08 03:47:02;;;;;;;1.75;0.70;;;;;;;;;;5137833;27;20201;-58
2022/06/08 03:49:30;;;;;;;0.70;0.70;;;;;;;;;;5137000;27;20200;-58
2022/06/08 03:51:58;;;;;;;0.95;0.70;;;;;;;;;;5137260;28;20194;-58
2022/06/08 03:54:27;;;;;;;0.70;0.70;;;;;;;;;;5137544;28;20205;-58
2022/06/08 03:56:56;;;;;;;0.70;0.70;;;;;;;;;;5137610;28;20197;-58
2022/06/08 03:59:24;;;;;;;0.60;0.60;;;;;;;;;;5138089;28;20208;-59
2022/06/08 04:01:51;;;;;;;0.60;0.60;;;;;;;;;;5137880;28;20198;-59
2022/06/08 04:04:20;;;;;;;0.65;0.65;;;;;;;;;;5135834;27;20198;-59
2022/06/08 04:06:49;;;;;;;0.73;0.73;;;;;;;;;;5137033;28;20487;-59
2022/06/08 04:09:16;;;;;;;0.50;0.50;;;;;;;;;;5136262;28;20208;-59
2022/06/08 04:11:44;;;;;;;0.60;0.60;;;;;;;;;;5136867;27;20221;-59
2022/06/08 04:14:12;;;;;;;0.70;0.70;;;;;;;;;;5138241;27;20202;-58
2022/06/08 04:16:39;;;;;;;0.73;0.73;;;;;;;;;;5134968;27;20198;-59
2022/06/08 04:19:06;;;;;;;0.80;0.80;;;;;;;;;;5136195;28;20213;-59
2022/06/08 04:21:35;;;;;;;0.70;0.70;;;;;;;;;;5136963;28;20190;-59
2022/06/08 04:24:03;;;;;;;0.80;0.70;;;;;;;;;;5136217;28;20202;-59
2022/06/08 04:26:30;;;;;;;0.60;0.60;;;;;;;;;;5137425;28;20269;-59
2022/06/08 04:28:58;;;;;;;0.70;0.70;;;;;;;;;;5136372;28;20203;-59
2022/06/08 04:31:25;;;;;;;0.60;0.60;;;;;;;;;;5136318;28;20313;-58
2022/06/08 04:33:53;;;;;;;1.15;0.80;;;;;;;;;;5134529;28;20194;-58
2022/06/08 04:36:20;;;;;;;0.70;0.70;;;;;;;;;;5135650;28;20593;-59
2022/06/08 04:38:49;;;;;;;0.73;0.73;;;;;;;;;;5134989;28;20210;-59
2022/06/08 04:41:17;;;;;;;1.70;0.75;;;;;;;;;;5134247;28;20194;-59
2022/06/08 04:43:45;;;;;;;0.85;0.80;;;;;;;;;;5135211;28;20195;-59
2022/06/08 04:46:15;;;;;;;0.60;0.60;;;;;;;;;;5135075;27;20217;-59
2022/06/08 04:48:43;;;;;;;0.60;0.60;;;;;;;;;;5135086;27;20495;-59
2022/06/08 04:51:11;;;;;;;0.60;0.60;;;;;;;;;;5134320;27;20226;-59
2022/06/08 04:53:39;;;;;;;1.17;0.60;;;;;;;;;;5135109;27;20206;-59
2022/06/08 04:56:08;;;;;;;0.70;0.70;;;;;;;;;;5134515;27;20445;-59
2022/06/08 04:58:36;;;;;;;0.63;0.63;;;;;;;;;;5138201;27;20202;-59
2022/06/08 05:01:04;;;;;;;0.65;0.65;;;;;;;;;;5137461;27;20194;-59
2022/06/08 05:03:32;;;;;;;0.80;0.70;;;;;;;;;;5137351;27;20609;-59
2022/06/08 05:06:00;;;;;;;0.80;0.80;;;;;;;;;;5136125;27;20209;-59
2022/06/08 05:08:28;;;;;;;0.70;0.70;;;;;;;;;;5138513;27;20213;-59
2022/06/08 05:10:57;;;;;;;0.68;0.68;;;;;;;;;;5135633;27;20229;-58
2022/06/08 05:13:26;;;;;;;0.80;0.80;;;;;;;;;;5136012;27;20206;-58
2022/06/08 05:15:53;;;;;;;0.82;0.80;;;;;;;;;;5136377;27;20481;-58
2022/06/08 05:18:22;;;;;;;0.70;0.70;;;;;;;;;;5135075;27;20201;-59
2022/06/08 05:20:50;;;;;;;0.80;0.80;;;;;;;;;;5134389;27;20636;-59
2022/06/08 05:23:18;;;;;;;0.80;0.80;;;;;;;;;;5135613;27;20198;-59
2022/06/08 05:25:46;;;;;;;0.80;0.80;;;;;;;;;;5135839;27;20205;-59
2022/06/08 05:28:15;;;;;;;0.98;0.90;;;;;;;;;;5135535;27;20302;-59
2022/06/08 05:30:44;;;;;;;0.90;0.90;;;;;;;;;;5136149;27;20218;-59
2022/06/08 05:33:13;;;;;;;1.10;0.85;;;;;;;;;;5137983;27;20199;-59
2022/06/08 05:35:41;;;;;;;1.00;1.00;;;;;;;;;;5134657;27;20209;-59
2022/06/08 05:38:09;;;;;;;1.27;0.80;;;;;;;;;;5135835;27;20233;-59
2022/06/08 05:40:37;;;;;;;0.90;0.90;;;;;;;;;;5136673;27;20194;-59
2022/06/08 05:43:05;;;;;;;0.90;0.90;;;;;;;;;;5135926;27;20278;-59
2022/06/08 05:45:33;;;;;;;0.90;0.90;;;;;;;;;;5119295;27;20194;-59
2022/06/08 05:48:02;;;;;;;1.08;0.98;;;;;;;;;;5135504;27;20297;-59
2022/06/08 05:50:30;;;;;;;1.08;0.98;;;;;;;;;;5118958;27;20465;-59
2022/06/08 05:52:58;;;;;;;0.85;0.85;;;;;;;;;;5136012;27;20202;-59
2022/06/08 05:55:26;;;;;;;1.50;1.08;;;;;;;;;;5134669;27;20201;-59
2022/06/08 05:57:53;;;;;;;1.08;1.08;;;;;;;;;;5144919;27;20224;-59
2022/06/08 06:00:21;;;;;;;1.00;0.90;;;;;;;;;;5154699;27;20198;-59
2022/06/08 06:02:49;;;;;;;1.15;1.05;;;;;;;;;;5139620;27;20194;-59
2022/06/08 06:05:19;;;;;;;1.10;1.10;;;;;;;;;;5135659;27;20221;-59
2022/06/08 06:07:46;;;;;;;1.33;1.10;;;;;;;;;;5136213;27;20651;-59
2022/06/08 06:10:15;;;;;;;1.20;1.10;;;;;;;;;;5137566;27;20213;-59
2022/06/08 06:12:43;;;;;;;1.20;1.10;;;;;;;;;;5137629;27;20613;-59
2022/06/08 06:15:11;;;;;;;1.00;1.00;;;;;;;;;;5136994;27;20204;-59
2022/06/08 06:17:38;;;;;;;1.10;1.10;;;;;;;;;;5137707;27;20267;-59
2022/06/08 06:20:06;;;;;;;1.08;1.00;;;;;;;;;;5137633;27;20489;-59
2022/06/08 06:22:35;;;;;;;0.93;0.93;;;;;;;;;;5137016;27;20233;-59
2022/06/08 06:25:03;;;;;;;1.40;1.30;;;;;;;;;;5137549;27;20194;-59
2022/06/08 06:27:31;;;;;;;1.00;1.00;;;;;;;;;;5138467;27;20232;-59
2022/06/08 06:29:58;;;;;;;1.67;1.40;;;;;;;;;;5136683;27;20618;-59
2022/06/08 06:32:27;;;;;;;1.20;1.10;;;;;;;;;;5135932;27;20222;-59
2022/06/08 06:34:55;;;;;;;1.08;1.08;;;;;;;;;;5135532;27;20735;-59
2022/06/08 06:37:22;;;;;;;1.38;1.27;;;;;;;;;;5134173;27;20217;-59
2022/06/08 06:39:52;;;;;;;1.20;1.10;;;;;;;;;;5133471;27;20198;-59
2022/06/08 06:42:21;;;;;;;1.27;1.00;;;;;;;;;;5133226;27;20236;-59
2022/06/08 06:44:49;;;;;;;1.20;1.10;;;;;;;;;;5134694;27;20229;-59
2022/06/08 06:47:16;;;;;;;2.03;1.30;;;;;;;;;;5133749;27;20214;-59
2022/06/08 06:49:43;;;;;;;1.10;1.00;;;;;;;;;;5132668;27;20323;-59
2022/06/08 06:52:12;;;;;;;1.75;1.20;;;;;;;;;;5135403;27;20220;-59
2022/06/08 06:54:39;;;;;;;1.40;1.30;;;;;;;;;;5134001;27;20210;-59
2022/06/08 06:57:08;;;;;;;2.22;1.38;;;;;;;;;;5118275;27;20201;-59
2022/06/08 06:59:36;;;;;;;1.65;1.30;;;;;;;;;;5134110;27;20500;-59
2022/06/08 07:02:03;;;;;;;2.40;1.48;;;;;;;;;;5134148;27;20213;-59
2022/06/08 07:04:31;;;;;;;2.10;1.50;;;;;;;;;;5115923;27;20572;-59
2022/06/08 07:06:58;;;;;;;1.40;1.30;;;;;;;;;;5134348;27;20186;-59
2022/06/08 07:09:28;;;;;;;1.55;1.40;;;;;;;;;;5132555;27;20195;-59
2022/06/08 07:11:55;;;;;;;1.30;1.20;;;;;;;;;;5134356;27;20218;-59
2022/06/08 07:14:24;;;;;;;3.00;1.50;;;;;;;;;;5134503;27;20193;-59
2022/06/08 07:16:52;;;;;;;1.60;1.30;;;;;;;;;;5133826;27;20561;-59
2022/06/08 07:19:19;;;;;;;2.55;1.38;;;;;;;;;;5134026;27;20263;-59
2022/06/08 07:21:48;;;;;;;1.65;1.45;;;;;;;;;;5134871;27;20266;-59
2022/06/08 07:24:19;;;;;;;1.60;1.40;;;;;;;;;;5134032;27;20217;-59
2022/06/08 07:26:46;;;;;;;1.35;1.25;;;;;;;;;;5133710;27;20198;-59
2022/06/08 07:29:13;;;;;;;1.63;1.48;;;;;;;;;;5133950;27;20198;-59
2022/06/08 07:31:42;;;;;;;1.50;1.40;;;;;;;;;;5133430;27;20222;-59
2022/06/08 07:34:11;;;;;;;1.50;1.38;;;;;;;;;;5134024;27;20662;-58
2022/06/08 07:36:39;;;;;;;1.40;1.30;;;;;;;;;;5134871;27;20210;-59
2022/06/08 07:39:07;;;;;;;1.45;1.35;;;;;;;;;;5135541;27;20210;-59
2022/06/08 07:41:34;;;;;;;1.65;1.55;;;;;;;;;;5133921;27;20242;-59
2022/06/08 07:44:01;;;;;;;2.05;1.50;;;;;;;;;;5134416;27;20206;-58
2022/06/08 07:46:29;;;;;;;1.60;1.50;;;;;;;;;;5133234;27;20488;-59
2022/06/08 07:51:44;;;;;;;1.67;1.58;;;;;;;;;;5144179;27;20221;-59
2022/06/08 07:54:12;;;;;;;1.50;1.40;;;;;;;;;;5134682;28;20457;-58
2022/06/08 07:56:39;;;;;;;1.65;1.55;;;;;;;;;;5134432;28;20204;-59
2022/06/08 07:59:07;;;;;;;1.90;1.63;;;;;;;;;;5134380;28;20194;-58
2022/06/08 08:01:34;;;;;;;1.50;1.40;;;;;;;;;;5133348;28;20217;-58
2022/06/08 08:04:04;;;;;;;1.60;1.40;;;;;;;;;;5145932;27;20561;-58
2022/06/08 08:06:32;;;;;;;1.42;1.33;;;;;;;;;;5156400;27;20212;-58
2022/06/08 08:09:01;;;;;;;1.63;1.52;;;;;;;;;;5156372;27;20749;-58
2022/06/08 08:11:29;;;;;;;1.45;1.35;;;;;;;;;;5154213;27;20616;-59
2022/06/08 08:13:57;;;;;;;1.77;1.50;;;;;;;;;;5155441;27;20193;-59
2022/06/08 08:16:25;;;;;;;1.85;1.60;;;;;;;;;;5153752;27;20201;-58
2022/06/08 08:18:52;;;;;;;2.10;1.50;;;;;;;;;;5154673;27;20224;-58
2022/06/08 08:21:21;;;;;;;1.60;1.50;;;;;;;;;;5154790;27;20198;-58
2022/06/08 08:23:48;;;;;;;1.70;1.60;;;;;;;;;;5154717;27;20201;-58
2022/06/08 08:26:15;;;;;;;1.75;1.50;;;;;;;;;;5140426;27;20724;-59
2022/06/08 08:28:43;;;;;;;1.60;1.50;;;;;;;;;;5133039;28;20209;-58
2022/06/08 08:31:11;;;;;;;1.52;1.35;;;;;;;;;;5132020;27;20308;-58
2022/06/08 08:33:38;;;;;;;1.40;1.30;;;;;;;;;;5137818;27;20212;-59
2022/06/08 08:36:06;;;;;;;1.50;1.40;;;;;;;;;;5133997;27;20558;-58
2022/06/08 08:38:34;;;;;;;2.05;1.48;;;;;;;;;;5136583;27;20631;-59
2022/06/08 08:41:03;;;;;;;2.40;1.50;;;;;;;;;;5136119;27;20495;-59
2022/06/08 08:43:32;;;;;;;1.50;1.40;;;;;;;;;;5135952;27;20464;-59
2022/06/08 08:46:20;;;;;;;1.60;1.50;;;;;;;;;;5135389;27;20206;-59
2022/06/08 08:48:49;;;;;;;1.70;1.60;;;;;;;;;;5136170;27;20198;-59
2022/06/08 08:51:19;;;;;;;1.60;1.50;;;;;;;;;;5136024;27;20225;-62
2022/06/08 08:53:59;;;;;;;1.65;1.52;;;;;;;;;;5136927;27;20206;-59
2022/06/08 08:56:29;;;;;;;1.70;1.60;;;;;;;;;;5137408;27;20545;-58
2022/06/08 08:58:57;;;;;;;1.35;1.23;;;;;;;;;;5136403;27;20569;-58
2022/06/08 09:01:28;;;;;;;1.60;1.50;;;;;;;;;;5136377;27;20195;-58
2022/06/08 09:03:56;;;;;;;1.70;1.60;;;;;;;;;;5137324;27;20485;-58
2022/06/08 09:06:25;;;;;;;1.70;1.48;;;;;;;;;;5136023;27;20569;-59
2022/06/08 09:08:55;;;;;;;1.60;1.50;;;;;;;;;;5136493;27;20207;-58
2022/06/08 09:11:25;;;;;;;1.50;1.40;;;;;;;;;;5135429;27;20628;-58
2022/06/08 09:13:53;;;;;;;1.50;1.40;;;;;;;;;;5135285;27;20205;-58
2022/06/08 09:16:28;;;;;;;1.52;1.33;;;;;;;;;;5134566;27;20205;-59
2022/06/08 09:18:57;;;;;;;1.42;1.33;;;;;;;;;;5114809;28;20190;-59
2022/06/08 09:21:26;;;;;;;1.40;1.30;;;;;;;;;;5132270;27;20202;-58
2022/06/08 09:23:57;;;;;;;1.55;1.45;;;;;;;;;;5134266;27;20194;-58
2022/06/08 09:26:39;;;;;;;1.52;1.42;;;;;;;;;;5149899;27;20581;-58
2022/06/08 09:29:15;;;;;;;1.48;1.30;;;;;;;;;;5135181;27;20604;-58
2022/06/08 09:31:43;;;;;;;1.50;1.40;;;;;;;;;;5134315;27;20222;-58
2022/06/08 09:34:19;;;;;;;1.20;1.20;;;;;;;;;;5134861;27;20202;-58
2022/06/08 09:36:47;;;;;;;1.60;1.30;;;;;;;;;;5134208;27;20654;-58
2022/06/08 09:39:18;;;;;;;1.42;1.33;;;;;;;;;;5135429;27;20202;-58
2022/06/08 09:41:49;;;;;;;1.42;1.23;;;;;;;;;;5134941;27;20496;-58
2022/06/08 09:44:24;;;;;;;1.42;1.30;;;;;;;;;;5135110;27;20494;-59
2022/06/08 09:52:51;;;;;;;2.15;1.08;;;;;;;;;;5070314;28;20561;-59
2022/06/08 09:55:26;;;;;;;1.40;1.30;;;;;;;;;;5123345;27;20197;-59
2022/06/08 09:57:59;;;;;;;1.30;1.20;;;;;;;;;;5134992;27;20202;-58
2022/06/08 10:00:29;;;;;;;1.80;1.23;;;;;;;;;;5135004;27;20459;-58
2022/06/08 10:03:05;;;;;;;1.30;1.20;;;;;;;;;;5135566;27;20266;-59
2022/06/08 10:05:41;;;;;;;1.67;1.25;;;;;;;;;;5135201;27;20212;-58
2022/06/08 10:08:16;;;;;;;1.30;1.20;;;;;;;;;;5133474;27;20219;-59
2022/06/08 10:10:47;;;;;;;1.40;1.20;;;;;;;;;;5127397;27;20217;-58
2022/06/08 10:13:19;;;;;;;1.30;1.20;;;;;;;;;;5133968;27;20511;-58
2022/06/08 10:15:49;;;;;;;1.40;1.23;;;;;;;;;;5134091;27;20198;-58
2022/06/08 10:18:18;;;;;;;1.35;1.20;;;;;;;;;;5127080;27;20585;-58
2022/06/08 10:20:50;;;;;;;1.27;1.17;;;;;;;;;;5134544;27;20195;-58
2022/06/08 10:23:26;;;;;;;1.27;1.20;;;;;;;;;;5133927;27;20372;-58
2022/06/08 10:25:57;;;;;;;1.00;0.90;;;;;;;;;;5135294;27;20268;-58
2022/06/08 10:28:27;;;;;;;1.20;1.10;;;;;;;;;;5135999;27;20202;-58
2022/06/08 10:30:57;;;;;;;1.80;1.20;;;;;;;;;;5135520;27;20202;-59
2022/06/08 10:33:27;;;;;;;1.33;1.10;;;;;;;;;;5134926;27;20677;-59
2022/06/08 10:35:57;;;;;;;1.10;1.00;;;;;;;;;;5132362;27;20199;-58
2022/06/08 10:38:26;;;;;;;1.30;1.15;;;;;;;;;;5124725;27;20277;-58
2022/06/08 10:40:57;;;;;;;0.90;0.90;;;;;;;;;;5133343;27;20463;-58
2022/06/08 10:43:25;;;;;;;1.05;0.95;;;;;;;;;;5114974;27;20231;-58
2022/06/08 10:45:55;;;;;;;1.13;1.10;;;;;;;;;;5096320;28;20214;-58
2022/06/08 10:48:26;;;;;;;1.23;0.90;;;;;;;;;;5113168;28;20334;-58
2022/06/08 10:51:12;;;;;;;1.10;1.00;;;;;;;;;;5114505;28;20753;-59
2022/06/08 10:56:33;;;;;;;1.17;0.95;;;;;;;;;;5113062;28;20206;-58
2022/06/08 10:59:13;;;;;;;2.05;1.15;;;;;;;;;;5113716;28;20207;-59
2022/06/08 11:01:50;;;;;;;1.55;0.90;;;;;;;;;;5112834;28;20198;-59
2022/06/08 11:04:32;;;;;;;1.35;1.10;;;;;;;;;;5112819;28;20205;-58
2022/06/08 11:07:02;;;;;;;1.10;1.00;;;;;;;;;;5112228;28;20201;-58
2022/06/08 11:09:47;;;;;;;0.98;0.98;;;;;;;;;;5113370;28;20210;-58
2022/06/08 11:12:27;;;;;;;1.35;1.00;;;;;;;;;;5112773;28;20296;-58
2022/06/08 11:14:57;;;;;;;0.77;0.77;;;;;;;;;;5112801;28;20210;-58
2022/06/08 11:17:26;;;;;;;1.58;1.00;;;;;;;;;;5111998;28;20206;-59
2022/06/08 11:19:55;;;;;;;1.00;0.90;;;;;;;;;;5111448;28;20187;-58
2022/06/08 11:22:25;;;;;;;1.20;1.00;;;;;;;;;;5111588;28;20569;-58
2022/06/08 11:24:54;;;;;;;1.33;0.80;;;;;;;;;;5112078;28;20586;-58
2022/06/08 11:27:32;;;;;;;1.20;1.00;;;;;;;;;;5111433;28;20264;-59
2022/06/08 11:30:01;;;;;;;1.30;0.90;;;;;;;;;;5111887;28;20256;-59
2022/06/08 11:32:39;;;;;;;0.80;0.80;;;;;;;;;;5111385;28;20637;-58
2022/06/08 11:35:25;;;;;;;0.82;0.80;;;;;;;;;;5111025;28;20206;-58
2022/06/08 11:37:58;;;;;;;1.00;0.90;;;;;;;;;;5111059;28;20325;-59
2022/06/08 11:40:30;;;;;;;1.60;0.93;;;;;;;;;;5111762;28;20202;-58
2022/06/08 11:43:01;;;;;;;0.85;0.80;;;;;;;;;;5119281;27;20745;-59
2022/06/08 11:45:37;;;;;;;0.95;0.95;;;;;;;;;;5131884;27;20463;-59
2022/06/08 11:48:14;;;;;;;1.15;1.00;;;;;;;;;;5113957;28;20191;-59
2022/06/08 11:50:43;;;;;;;0.80;0.80;;;;;;;;;;5113381;27;20198;-59
2022/06/08 11:53:18;;;;;;;1.10;0.90;;;;;;;;;;5131283;28;20232;-59
2022/06/08 11:55:50;;;;;;;1.42;1.00;;;;;;;;;;5130975;28;20213;-59
2022/06/08 11:58:22;;;;;;;1.30;0.90;;;;;;;;;;5131644;28;20209;-59
2022/06/08 12:00:53;;;;;;;1.30;1.00;;;;;;;;;;5111487;28;20508;-59
2022/06/08 12:03:26;;;;;;;1.30;0.90;;;;;;;;;;5102414;28;20210;-59
2022/06/08 12:06:01;;;;;;;1.10;1.00;;;;;;;;;;5125718;27;20262;-59
2022/06/08 12:08:31;;;;;;;0.90;0.90;;;;;;;;;;5135178;27;20194;-59
2022/06/08 12:11:02;;;;;;;0.88;0.85;;;;;;;;;;5134612;27;20205;-59
2022/06/08 12:13:31;;;;;;;1.00;0.90;;;;;;;;;;5133934;27;20668;-59
2022/06/08 12:16:03;;;;;;;1.35;0.98;;;;;;;;;;5133490;27;20194;-59
2022/06/08 12:18:41;;;;;;;0.90;0.90;;;;;;;;;;5135094;27;20202;-59
2022/06/08 12:21:20;;;;;;;1.00;0.90;;;;;;;;;;5135253;27;20288;-59
2022/06/08 12:23:57;;;;;;;0.70;0.70;;;;;;;;;;5126942;27;20191;-59
2022/06/08 12:26:27;;;;;;;1.45;1.00;;;;;;;;;;5114906;28;20198;-59
2022/06/08 12:29:04;;;;;;;1.00;0.90;;;;;;;;;;5114081;28;20215;-59
2022/06/08 12:31:32;;;;;;;1.38;0.88;;;;;;;;;;5115532;28;20199;-59
2022/06/08 12:34:15;;;;;;;0.80;0.80;;;;;;;;;;5116412;27;20271;-59
2022/06/08 12:36:42;;;;;;;0.98;0.80;;;;;;;;;;5135078;27;20194;-59
2022/06/08 12:39:12;;;;;;;0.93;0.85;;;;;;;;;;5133902;27;20213;-59
2022/06/08 12:41:41;;;;;;;0.80;0.80;;;;;;;;;;5113979;27;20478;-59
2022/06/08 12:44:16;;;;;;;0.80;0.80;;;;;;;;;;5113217;27;20202;-59
2022/06/08 12:46:49;;;;;;;1.58;1.00;;;;;;;;;;5132020;27;20457;-59
2022/06/08 12:49:18;;;;;;;1.38;0.80;;;;;;;;;;5134609;27;20680;-59
2022/06/08 12:51:48;;;;;;;1.10;1.00;;;;;;;;;;5116898;27;20199;-59
2022/06/08 12:54:18;;;;;;;0.88;0.70;;;;;;;;;;5113808;28;20233;-59
2022/06/08 12:56:47;;;;;;;0.80;0.80;;;;;;;;;;5114858;28;20203;-59
2022/06/08 12:59:16;;;;;;;0.95;0.90;;;;;;;;;;5113692;28;20589;-59
2022/06/08 13:01:45;;;;;;;1.08;0.80;;;;;;;;;;5114581;28;20213;-59
2022/06/08 13:04:14;;;;;;;1.10;0.80;;;;;;;;;;5132130;27;20282;-59
2022/06/08 13:06:42;;;;;;;1.02;1.00;;;;;;;;;;5133547;27;20480;-59
2022/06/08 13:09:11;;;;;;;0.90;0.80;;;;;;;;;;5134040;27;20202;-60
2022/06/08 13:11:39;;;;;;;1.38;0.80;;;;;;;;;;5134222;27;20336;-59
2022/06/08 13:14:06;;;;;;;1.23;0.90;;;;;;;;;;5134068;27;20501;-59
2022/06/08 13:16:35;;;;;;;0.70;0.70;;;;;;;;;;5133092;27;20225;-59
2022/06/08 13:19:03;;;;;;;1.58;1.00;;;;;;;;;;5134263;27;20305;-59
2022/06/08 13:21:33;;;;;;;0.95;0.80;;;;;;;;;;5134169;27;20206;-59
2022/06/08 13:24:00;;;;;;;1.27;0.80;;;;;;;;;;5115674;28;20752;-59
2022/06/08 13:26:31;;;;;;;1.58;0.95;;;;;;;;;;5134002;27;20197;-59
2022/06/08 13:28:58;;;;;;;1.60;0.90;;;;;;;;;;5134242;27;20202;-59
2022/06/08 13:31:26;;;;;;;1.00;0.80;;;;;;;;;;5102943;27;20203;-59
2022/06/08 13:34:02;;;;;;;1.15;0.90;;;;;;;;;;5115627;28;20666;-59
2022/06/08 13:36:31;;;;;;;1.08;0.80;;;;;;;;;;5134014;27;20201;-60
2022/06/08 13:39:01;;;;;;;1.23;1.00;;;;;;;;;;5133519;27;20195;-59
2022/06/08 13:41:29;;;;;;;1.50;0.90;;;;;;;;;;5132264;27;20314;-59
2022/06/08 13:43:56;;;;;;;0.70;0.70;;;;;;;;;;5131983;27;20585;-59
2022/06/08 13:46:26;;;;;;;0.90;0.80;;;;;;;;;;5134833;27;20199;-59
2022/06/08 13:48:54;;;;;;;0.93;0.80;;;;;;;;;;5133764;27;20282;-60
2022/06/08 13:51:25;;;;;;;1.08;0.80;;;;;;;;;;5132505;27;20257;-59
2022/06/08 13:53:53;;;;;;;1.02;0.70;;;;;;;;;;5132968;27;20229;-59
2022/06/08 13:56:22;;;;;;;1.25;0.70;;;;;;;;;;5131459;27;20270;-59
2022/06/08 13:58:50;;;;;;;0.98;0.70;;;;;;;;;;5124449;27;20199;-59
2022/06/08 14:01:19;;;;;;;1.05;0.88;;;;;;;;;;5133552;27;20229;-59
2022/06/08 14:03:47;;;;;;;0.90;0.80;;;;;;;;;;5133953;27;20206;-59
2022/06/08 14:14:34;;;;;;;0.80;0.70;;;;;;;;;;5132337;27;20561;-59
2022/06/08 14:17:02;;;;;;;1.00;0.90;;;;;;;;;;5132428;27;20218;-59
2022/06/08 14:19:42;;;;;;;0.95;0.90;;;;;;;;;;5131348;27;20229;-59
2022/06/08 14:22:10;;;;;;;1.20;0.88;;;;;;;;;;5123734;27;20717;-59
2022/06/08 14:24:40;;;;;;;0.90;0.85;;;;;;;;;;5135458;27;20604;-59
2022/06/08 14:27:08;;;;;;;1.02;0.88;;;;;;;;;;5136007;27;20480;-59
2022/06/08 14:29:37;;;;;;;0.82;0.82;;;;;;;;;;5135520;27;20205;-59
2022/06/08 14:32:12;;;;;;;1.00;0.80;;;;;;;;;;5127855;27;20536;-59
2022/06/08 14:34:40;;;;;;;0.93;0.88;;;;;;;;;;5127558;27;20222;-59
2022/06/08 14:37:08;;;;;;;1.02;0.77;;;;;;;;;;5133210;27;20503;-59
2022/06/08 14:39:37;;;;;;;0.82;0.80;;;;;;;;;;5134289;27;20570;-59
2022/06/08 14:42:07;;;;;;;1.00;0.90;;;;;;;;;;5133230;27;20779;-59
2022/06/08 14:44:35;;;;;;;0.80;0.80;;;;;;;;;;5135740;27;20205;-59
2022/06/08 14:47:03;;;;;;;0.80;0.80;;;;;;;;;;5128113;27;20278;-59
2022/06/08 14:49:32;;;;;;;0.90;0.90;;;;;;;;;;5123328;27;20190;-59
2022/06/08 14:51:59;;;;;;;0.85;0.85;;;;;;;;;;5135484;27;20202;-59
2022/06/08 14:54:28;;;;;;;0.82;0.82;;;;;;;;;;5137026;27;20226;-59
2022/06/08 14:57:00;;;;;;;0.80;0.80;;;;;;;;;;5135367;27;20229;-60
2022/06/08 14:59:30;;;;;;;1.00;0.80;;;;;;;;;;5134996;27;20194;-59
2022/06/08 15:01:58;;;;;;;1.10;0.80;;;;;;;;;;5134577;27;20194;-59
2022/06/08 15:04:26;;;;;;;0.80;0.80;;;;;;;;;;5134628;27;20729;-59
2022/06/08 15:06:53;;;;;;;1.08;0.93;;;;;;;;;;5134752;27;20230;-59
2022/06/08 15:09:21;;;;;;;0.90;0.90;;;;;;;;;;5133953;27;20198;-59
2022/06/08 15:11:58;;;;;;;0.93;0.80;;;;;;;;;;5132650;27;20198;-59
2022/06/08 15:14:30;;;;;;;1.17;0.90;;;;;;;;;;5134715;27;20229;-59
2022/06/08 15:16:58;;;;;;;1.02;0.70;;;;;;;;;;5134086;27;20197;-60
2022/06/08 15:19:28;;;;;;;1.33;0.90;;;;;;;;;;5133434;27;20202;-59